Time;durP1;ratioP1;P1;durP2;ratioP2;P2;SDS_P1;SDS_P2;PMS_P1;PMS_P2;Temp;Humidity;BMP_temperature;BMP_pressure;BME280_temperature;BME280_humidity;BME280_pressure;Samples;Min_cycle;Max_cycle;Signal;HPM_P1;HPM_P2
2022/12/06 00:02:15;;;;;;;50.17;22.52;;;;;;;2.96;99.10;98389.00;10244772;28;20046;-56
2022/12/06 00:07:14;;;;;;;49.13;24.42;;;;;;;3.08;98.35;98377.50;10244351;28;20488;-57
2022/12/06 00:12:13;;;;;;;50.65;24.85;;;;;;;3.15;98.82;98379.47;10245470;28;20041;-57
2022/12/06 00:17:12;;;;;;;40.53;19.13;;;;;;;3.19;98.65;98365.94;10243140;28;20125;-57
2022/12/06 00:22:11;;;;;;;39.17;19.40;;;;;;;3.24;98.09;98367.00;10245135;28;20153;-57
2022/12/06 00:27:10;;;;;;;48.08;20.60;;;;;;;3.18;97.91;98341.13;10244435;28;20041;-57
2022/12/06 00:32:08;;;;;;;64.63;32.30;;;;;;;3.24;98.01;98351.63;10244297;28;20026;-57
2022/12/06 00:37:07;;;;;;;46.00;23.35;;;;;;;3.27;98.46;98351.72;10244170;28;20038;-57
2022/12/06 00:42:06;;;;;;;41.28;21.52;;;;;;;3.34;97.96;98357.97;10244549;28;20018;-56
2022/12/06 00:47:05;;;;;;;45.58;21.00;;;;;;;3.37;98.46;98347.78;10243352;28;20030;-57
2022/12/06 00:52:04;;;;;;;39.05;19.40;;;;;;;3.43;97.73;98338.63;10244443;28;20408;-56
2022/12/06 00:57:03;;;;;;;43.97;20.23;;;;;;;3.40;97.54;98325.72;10244020;28;20052;-56
2022/12/06 01:02:02;;;;;;;134.32;76.75;;;;;;;3.44;97.20;98335.25;10241489;28;20035;-56
2022/12/06 01:07:01;;;;;;;217.45;123.63;;;;;;;3.18;97.58;98335.97;10243096;28;20046;-56
2022/12/06 01:12:00;;;;;;;47.97;23.70;;;;;;;3.13;98.17;98335.81;10243459;28;20479;-56
2022/12/06 01:16:59;;;;;;;44.92;20.92;;;;;;;3.23;98.11;98324.19;10243213;28;20045;-56
2022/12/06 01:21:58;;;;;;;103.38;50.40;;;;;;;3.31;97.70;98322.81;10243585;28;20058;-56
2022/12/06 01:26:57;;;;;;;51.55;22.33;;;;;;;3.35;97.65;98316.09;10243122;28;20030;-56
2022/12/06 01:31:56;;;;;;;62.75;33.13;;;;;;;3.30;97.51;98310.78;10243211;28;20029;-56
2022/12/06 01:36:55;;;;;;;50.58;21.52;;;;;;;3.28;97.35;98312.41;10242425;28;20038;-56
2022/12/06 01:41:54;;;;;;;54.40;22.73;;;;;;;3.19;98.09;98317.19;10242202;28;20026;-56
2022/12/06 01:46:53;;;;;;;56.45;24.55;;;;;;;3.15;98.30;98312.81;10242562;28;20071;-56
2022/12/06 01:52:00;;;;;;;46.78;18.83;;;;;;;3.05;98.72;98308.13;10242851;28;20058;-56
2022/12/06 01:57:03;;;;;;;43.33;21.00;;;;;;;3.01;98.75;98302.03;10242565;28;20121;-56
2022/12/06 02:02:02;;;;;;;37.13;17.90;;;;;;;3.13;97.92;98299.03;10240309;28;20129;-56
2022/12/06 02:07:01;;;;;;;;;;;;;;;3.11;98.02;98292.97;10242509;28;20113;-56
2022/12/06 02:12:00;;;;;;;43.00;19.67;;;;;;;3.00;98.66;98295.13;10242278;28;20008;-56
2022/12/06 02:17:21;;;;;;;37.28;18.00;;;;;;;3.06;98.60;98285.13;10242431;28;20030;-56
2022/12/06 02:22:29;;;;;;;53.72;23.05;;;;;;;2.97;98.55;98287.34;10245816;28;20132;-56
2022/12/06 02:27:36;;;;;;;46.78;21.27;;;;;;;2.92;99.23;98287.16;10247327;28;20130;-56
2022/12/06 02:32:49;;;;;;;43.40;17.45;;;;;;;2.81;99.28;98278.19;10249446;28;20057;-56
2022/12/06 02:37:57;;;;;;;42.33;17.65;;;;;;;2.79;99.52;98280.72;10248717;28;20058;-56
2022/12/06 02:43:01;;;;;;;40.72;16.60;;;;;;;2.85;99.42;98277.50;10249416;28;20516;-56
2022/12/06 02:48:03;;;;;;;38.08;16.80;;;;;;;3.00;99.17;98277.19;10248553;28;20475;-56
2022/12/06 02:53:05;;;;;;;41.35;17.38;;;;;;;3.05;98.71;98275.69;10248322;28;20488;-56
2022/12/06 02:58:04;;;;;;;42.15;16.30;;;;;;;2.99;99.17;98273.75;10247727;28;20062;-56
2022/12/06 03:03:27;;;;;;;45.80;17.92;;;;;;;3.00;99.33;98272.97;10248498;28;20038;-56
2022/12/06 03:08:55;;;;;;;61.03;22.67;;;;;;;3.01;99.38;98261.88;10245954;28;20584;-56
2022/12/06 03:14:02;;;;;;;76.15;26.88;;;;;;;3.06;99.42;98268.88;10244302;28;20134;-56
2022/12/06 03:19:23;;;;;;;59.10;20.73;;;;;;;3.02;99.42;98250.78;10246739;28;20096;-56
2022/12/06 03:24:24;;;;;;;61.53;19.92;;;;;;;3.04;99.41;98257.69;10247031;28;20125;-56
2022/12/06 03:29:25;;;;;;;69.00;23.98;;;;;;;3.01;99.49;98255.88;10247078;28;20118;-56
2022/12/06 03:34:29;;;;;;;64.18;21.55;;;;;;;2.99;100.00;98254.94;10245978;28;20109;-56
2022/12/06 03:39:36;;;;;;;53.28;19.83;;;;;;;3.05;99.92;98254.28;10246557;28;20122;-56
2022/12/06 03:44:35;;;;;;;55.53;20.52;;;;;;;3.08;99.87;98251.84;10246405;28;20112;-56
2022/12/06 03:49:41;;;;;;;64.22;21.02;;;;;;;3.12;99.93;98235.75;10260868;28;20069;-56
2022/12/06 03:54:41;;;;;;;63.95;21.48;;;;;;;3.11;99.83;98247.69;10243732;28;20496;-56
2022/12/06 03:59:40;;;;;;;56.42;18.45;;;;;;;3.06;99.57;98248.34;10245471;28;20117;-56
2022/12/06 04:04:39;;;;;;;62.45;21.67;;;;;;;3.08;99.52;98239.91;10245309;28;20124;-56
2022/12/06 04:10:01;;;;;;;58.75;22.85;;;;;;;3.08;99.81;98231.34;10245583;28;20066;-56
2022/12/06 04:15:00;;;;;;;84.88;34.28;;;;;;;3.10;99.84;98234.84;10244757;28;20481;-56
2022/12/06 04:19:59;;;;;;;79.35;26.25;;;;;;;3.12;99.71;98233.16;10244519;28;20116;-57
2022/12/06 04:24:58;;;;;;;89.20;23.52;;;;;;;3.13;99.63;98224.69;10245158;28;20042;-57
2022/12/06 04:40:32;;;;;;;84.78;25.73;;;;;;;2.99;100.00;98232.72;10243624;28;20113;-57
2022/12/06 04:45:31;;;;;;;84.47;26.35;;;;;;;2.95;100.00;98236.00;10243696;28;20105;-57
2022/12/06 04:50:30;;;;;;;75.57;28.15;;;;;;;2.91;100.00;98234.16;10243485;28;20046;-57
2022/12/06 04:55:29;;;;;;;71.40;23.42;;;;;;;2.83;100.00;98227.00;10244429;28;20068;-57
2022/12/06 05:00:28;;;;;;;80.43;23.25;;;;;;;2.80;100.00;98231.19;10243590;28;20049;-57
2022/12/06 05:05:27;;;;;;;101.97;24.80;;;;;;;2.76;100.00;98225.91;10242772;28;20034;-57
2022/12/06 05:10:26;;;;;;;72.00;19.73;;;;;;;2.55;100.00;98228.53;10243700;28;20369;-57
2022/12/06 05:15:25;;;;;;;98.28;26.55;;;;;;;2.47;100.00;98232.50;10241767;28;20030;-57
2022/12/06 05:20:24;;;;;;;99.45;26.77;;;;;;;2.39;100.00;98239.84;10242433;28;20045;-57
2022/12/06 05:25:23;;;;;;;105.88;29.45;;;;;;;2.46;100.00;98236.72;10243207;28;20522;-57
2022/12/06 05:30:22;;;;;;;72.97;26.52;;;;;;;2.38;100.00;98233.88;10243069;28;20034;-57
2022/12/06 05:35:21;;;;;;;68.53;26.33;;;;;;;2.38;100.00;98228.75;10242883;28;20065;-57
2022/12/06 05:40:20;;;;;;;75.95;29.67;;;;;;;2.49;100.00;98229.16;10242286;28;20038;-57
2022/12/06 05:45:19;;;;;;;87.70;32.08;;;;;;;2.65;100.00;98222.03;10242419;28;20516;-57
2022/12/06 05:50:18;;;;;;;90.55;32.47;;;;;;;2.72;100.00;98218.91;10241097;28;20121;-57
2022/12/06 05:55:17;;;;;;;83.43;25.52;;;;;;;2.65;100.00;98210.09;10246759;28;20022;-57
2022/12/06 06:00:17;;;;;;;117.60;34.92;;;;;;;2.51;100.00;98211.28;10247347;28;20305;-57
2022/12/06 06:05:16;;;;;;;92.93;31.85;;;;;;;2.46;100.00;98212.78;10247943;28;20162;-57
2022/12/06 06:10:15;;;;;;;;;;;;;;;2.37;100.00;98203.06;10249938;28;20534;-57
2022/12/06 06:15:14;;;;;;;124.13;51.50;;;;;;;2.27;100.00;98206.09;10249575;28;19960;-57
2022/12/06 06:20:13;;;;;;;79.47;31.45;;;;;;;2.33;100.00;98211.47;10248448;28;20474;-57
2022/12/06 06:25:12;;;;;;;98.80;32.97;;;;;;;2.31;100.00;98208.84;10245697;28;20084;-57
2022/12/06 06:30:12;;;;;;;96.65;36.00;;;;;;;2.42;100.00;98211.81;10248758;28;20033;-57
2022/12/06 06:35:11;;;;;;;68.65;25.20;;;;;;;2.53;100.00;98209.66;10248693;28;20058;-58
2022/12/06 06:40:10;;;;;;;47.97;21.73;;;;;;;2.41;100.00;98206.63;10248988;28;20034;-57
2022/12/06 06:45:09;;;;;;;60.28;23.55;;;;;;;2.47;100.00;98199.19;10247046;28;20117;-58
2022/12/06 06:50:09;;;;;;;39.67;16.27;;;;;;;2.47;100.00;98194.94;10248044;28;20058;-58
2022/12/06 06:55:08;;;;;;;48.17;20.27;;;;;;;2.51;100.00;98191.69;10248402;28;20068;-58
2022/12/06 07:00:08;;;;;;;78.53;31.65;;;;;;;2.49;100.00;98182.16;10249407;28;20084;-58
2022/12/06 07:05:07;;;;;;;95.35;33.47;;;;;;;2.48;100.00;98176.19;10244909;28;20145;-57
2022/12/06 07:10:06;;;;;;;95.35;34.92;;;;;;;2.38;100.00;98172.41;10243544;28;20121;-57
2022/12/06 07:15:05;;;;;;;;;;;;;;;2.38;100.00;98185.22;10245733;28;20552;-57
2022/12/06 07:20:05;;;;;;;85.30;36.15;;;;;;;2.39;100.00;98186.06;10245647;28;19960;-57
2022/12/06 07:25:04;;;;;;;134.38;38.45;;;;;;;2.42;100.00;98188.78;10242760;28;20129;-57
2022/12/06 07:30:04;;;;;;;104.07;37.33;;;;;;;2.45;100.00;98191.44;10244378;28;20129;-57
2022/12/06 07:35:04;;;;;;;110.88;38.90;;;;;;;2.49;100.00;98172.81;10245011;28;20121;-57
2022/12/06 07:40:03;;;;;;;;;;;;;;;2.44;100.00;98179.47;10247753;28;20129;-57
2022/12/06 07:45:04;;;;;;;67.53;32.58;;;;;;;2.54;100.00;98181.53;10244896;28;19925;-57
2022/12/06 07:50:05;;;;;;;54.90;25.85;;;;;;;2.61;100.00;98171.53;10245617;28;20061;-57
2022/12/06 07:55:05;;;;;;;49.47;25.20;;;;;;;2.52;100.00;98154.13;10245637;28;20184;-57
2022/12/06 08:00:07;;;;;;;57.25;29.30;;;;;;;2.52;100.00;98157.56;10245095;28;20141;-57
2022/12/06 08:05:07;;;;;;;60.10;29.88;;;;;;;2.52;100.00;98152.44;10245645;28;20157;-57
2022/12/06 08:10:06;;;;;;;;;;;;;;;2.63;100.00;98144.25;10244813;28;20114;-57
2022/12/06 08:15:11;;;;;;;58.97;29.25;;;;;;;2.78;100.00;98149.94;10247375;28;19952;-57
2022/12/06 08:20:11;;;;;;;76.75;32.15;;;;;;;2.69;100.00;98142.78;10245223;28;20069;-58
2022/12/06 08:25:10;;;;;;;86.50;38.53;;;;;;;2.84;100.00;98145.06;10246946;28;20081;-58
2022/12/06 08:30:09;;;;;;;74.90;36.60;;;;;;;3.02;100.00;98139.69;10246438;28;20026;-57
2022/12/06 08:35:08;;;;;;;77.50;37.38;;;;;;;3.12;100.00;98131.50;10247972;28;20050;-57
2022/12/06 08:40:07;;;;;;;81.60;41.55;;;;;;;3.36;100.00;98123.75;10246050;28;20162;-57
2022/12/06 08:45:06;;;;;;;;;;;;;;;3.54;100.00;98120.03;10247138;28;20566;-58
2022/12/06 08:50:06;;;;;;;84.55;39.33;;;;;;;3.73;100.00;98119.81;10245458;28;19913;-57
2022/12/06 08:55:05;;;;;;;128.30;71.13;;;;;;;3.81;100.00;98100.38;10245809;28;20520;-57
2022/12/06 09:00:06;;;;;;;125.57;67.95;;;;;;;4.10;100.00;98115.81;10246421;28;20065;-57
2022/12/06 09:05:06;;;;;;;65.15;36.38;;;;;;;4.42;100.00;98093.66;10243102;28;20142;-57
2022/12/06 09:10:05;;;;;;;44.88;18.60;;;;;;;5.02;100.00;98081.59;10243667;28;20125;-57
2022/12/06 09:15:05;;;;;;;54.90;22.20;;;;;;;5.67;96.41;98056.63;10243774;28;20563;-57
2022/12/06 09:20:04;;;;;;;27.17;14.07;;;;;;;6.30;91.94;98055.41;10243856;28;20790;-58
2022/12/06 09:25:04;;;;;;;26.88;14.68;;;;;;;6.68;88.44;98047.59;10243406;28;20548;-58
2022/12/06 09:30:03;;;;;;;24.02;12.55;;;;;;;7.01;87.46;98036.13;10244460;28;20109;-57
2022/12/06 09:35:02;;;;;;;20.33;12.13;;;;;;;7.31;84.96;98029.75;10250767;28;20504;-58
2022/12/06 09:40:10;;;;;;;21.75;12.23;;;;;;;7.50;81.86;98020.59;10252027;28;20137;-57
2022/12/06 09:45:09;;;;;;;21.52;12.75;;;;;;;7.78;81.75;98006.38;10251039;28;20149;-58
2022/12/06 09:50:35;;;;;;;21.27;12.55;;;;;;;8.05;79.53;97988.66;10253174;28;20085;-58
2022/12/06 09:55:53;;;;;;;23.17;12.48;;;;;;;8.20;77.13;97979.38;10252200;28;20070;-58
2022/12/06 10:01:09;;;;;;;20.02;11.65;;;;;;;8.21;75.76;97975.94;10251298;28;20133;-58
2022/12/06 10:06:13;;;;;;;18.80;11.02;;;;;;;8.24;74.56;97978.56;10250326;28;20122;-58
2022/12/06 10:11:29;;;;;;;22.20;14.25;;;;;;;8.34;75.33;97970.06;10251884;28;20122;-58
2022/12/06 10:16:31;;;;;;;18.23;11.00;;;;;;;8.44;74.84;97963.28;10249612;28;20073;-56
2022/12/06 10:21:50;;;;;;;20.88;12.52;;;;;;;8.51;73.59;97955.59;10251304;28;20089;-58
2022/12/06 10:26:51;;;;;;;19.50;12.67;;;;;;;8.50;71.92;97951.28;10249463;28;20483;-56
2022/12/06 10:31:56;;;;;;;17.75;11.27;;;;;;;8.60;72.41;97948.75;10251436;28;20065;-58
2022/12/06 10:37:16;;;;;;;19.50;12.07;;;;;;;8.76;70.96;97940.28;10249921;28;20069;-58
2022/12/06 10:42:23;;;;;;;;;;;;;;;8.96;71.13;97940.50;10250076;28;20488;-56
2022/12/06 10:47:36;;;;;;;22.05;12.63;;;;;;;9.12;70.19;97932.00;10245988;28;20017;-56
2022/12/06 10:53:05;;;;;;;17.90;12.10;;;;;;;9.42;69.33;97929.63;10246065;28;20117;-56
2022/12/06 10:58:28;;;;;;;19.38;11.95;;;;;;;9.68;66.83;97912.53;10244371;28;20121;-57
2022/12/06 11:03:37;;;;;;;18.42;11.75;;;;;;;9.86;66.69;97914.31;10244066;28;20148;-57
2022/12/06 11:08:41;;;;;;;20.08;11.93;;;;;;;9.96;65.61;97904.88;10244758;28;20133;-56
2022/12/06 11:13:53;;;;;;;19.52;11.50;;;;;;;9.96;65.21;97897.09;10246802;28;20129;-57
2022/12/06 11:18:59;;;;;;;25.25;13.73;;;;;;;9.91;65.04;97899.66;10247205;28;20062;-58
2022/12/06 11:24:37;;;;;;;22.95;13.63;;;;;;;9.97;65.37;97876.34;10246821;28;20222;-57
2022/12/06 11:29:36;;;;;;;18.58;12.65;;;;;;;9.99;63.83;97868.59;10244108;28;20137;-57
2022/12/06 11:34:46;;;;;;;18.25;11.50;;;;;;;10.02;63.74;97865.13;10246500;28;20061;-57
2022/12/06 11:39:48;;;;;;;21.92;12.98;;;;;;;10.14;63.67;97860.84;10244936;28;20070;-57
2022/12/06 11:44:53;;;;;;;27.35;16.15;;;;;;;10.19;63.15;97866.91;10245865;28;20483;-57
2022/12/06 11:49:54;;;;;;;23.05;12.13;;;;;;;10.26;62.77;97864.31;10246049;28;20117;-57
2022/12/06 11:55:01;;;;;;;24.95;17.33;;;;;;;10.27;61.80;97864.34;10245877;28;20104;-57
2022/12/06 12:00:21;;;;;;;27.20;14.73;;;;;;;10.37;62.30;97862.63;10245572;28;20070;-57
2022/12/06 12:05:29;;;;;;;27.52;15.98;;;;;;;10.39;62.08;97858.28;10244888;28;20200;-57
2022/12/06 12:10:38;;;;;;;21.05;13.02;;;;;;;10.34;62.19;97860.03;10245465;28;20057;-57
2022/12/06 12:15:48;;;;;;;29.55;18.77;;;;;;;10.25;61.77;97855.69;10244736;28;20576;-57
2022/12/06 12:20:48;;;;;;;21.27;11.80;;;;;;;10.29;61.43;97838.41;10245238;28;20118;-57
2022/12/06 12:26:02;;;;;;;30.65;16.52;;;;;;;10.41;61.91;97835.81;10243015;28;20129;-57
2022/12/06 12:31:22;;;;;;;17.88;11.82;;;;;;;10.45;61.33;97826.28;10244227;28;20125;-57
2022/12/06 12:36:25;;;;;;;21.35;11.90;;;;;;;10.36;60.87;97822.00;10243991;28;20081;-57
2022/12/06 12:41:36;;;;;;;19.50;11.00;;;;;;;10.22;61.02;97823.69;10243827;28;20069;-57
2022/12/06 12:46:36;;;;;;;20.48;12.73;;;;;;;10.28;60.95;97823.69;10243835;28;20125;-57
2022/12/06 12:51:36;;;;;;;20.45;11.95;;;;;;;10.35;61.57;97820.25;10243378;28;20549;-57
2022/12/06 12:56:36;;;;;;;20.83;11.82;;;;;;;10.19;61.23;97804.69;10243778;28;20082;-57
2022/12/06 13:01:38;;;;;;;18.65;11.63;;;;;;;10.16;62.12;97819.34;10244435;28;20074;-57
2022/12/06 13:06:44;;;;;;;20.13;11.80;;;;;;;10.13;61.79;97815.03;10241397;28;20498;-57
2022/12/06 13:11:48;;;;;;;22.27;12.55;;;;;;;10.21;61.40;97825.41;10256373;28;20193;-57
2022/12/06 13:16:51;;;;;;;19.67;10.85;;;;;;;10.26;61.08;97815.03;10243519;28;21251;-57
2022/12/06 13:21:50;;;;;;;18.83;11.27;;;;;;;10.34;60.99;97819.38;10242830;28;20097;-57
2022/12/06 13:27:02;;;;;;;23.95;13.40;;;;;;;10.52;61.01;97818.53;10239909;28;20129;-57
2022/12/06 13:32:12;;;;;;;17.25;12.27;;;;;;;10.49;60.51;97808.13;10243393;28;20081;-57
2022/12/06 13:37:42;;;;;;;23.55;13.40;;;;;;;10.31;61.16;97803.81;10242559;28;20472;-57
2022/12/06 13:42:44;;;;;;;16.27;10.55;;;;;;;10.06;60.94;97797.72;10242809;28;20495;-57
2022/12/06 13:47:52;;;;;;;21.38;11.93;;;;;;;9.85;61.86;97797.69;10241569;28;20077;-57
2022/12/06 13:52:51;;;;;;;18.58;11.77;;;;;;;9.64;62.56;97780.34;10243540;28;20125;-57
2022/12/06 13:57:58;;;;;;;22.40;13.27;;;;;;;9.56;62.18;97790.72;10242114;28;20048;-57
2022/12/06 14:03:22;;;;;;;20.77;12.45;;;;;;;9.34;63.03;97798.34;10242164;28;20246;-57
2022/12/06 14:08:28;;;;;;;19.08;11.93;;;;;;;9.11;63.78;97789.59;10242088;28;20077;-57
2022/12/06 14:13:27;;;;;;;21.90;12.07;;;;;;;8.97;64.57;97791.22;10241777;28;20056;-57
2022/12/06 14:18:28;;;;;;;21.58;13.35;;;;;;;8.78;64.80;97793.69;10247632;28;20054;-57
2022/12/06 14:23:34;;;;;;;19.40;11.82;;;;;;;8.68;65.67;97790.19;10250255;28;20113;-57
2022/12/06 14:28:34;;;;;;;23.30;13.85;;;;;;;8.57;65.86;97783.22;10247936;28;20146;-57
2022/12/06 14:33:37;;;;;;;20.27;12.02;;;;;;;8.40;66.29;97773.59;10247937;28;20054;-57
2022/12/06 14:38:36;;;;;;;19.60;12.00;;;;;;;8.25;67.00;97778.66;10249297;28;20057;-57
2022/12/06 14:43:36;;;;;;;23.15;11.55;;;;;;;8.09;67.68;97781.09;10248703;28;20122;-57
2022/12/06 14:53:54;;;;;;;20.55;11.10;;;;;;;7.78;69.17;97766.13;10256737;28;19949;-57
2022/12/06 14:58:56;;;;;;;26.13;13.27;;;;;;;7.62;69.83;97773.75;10247903;28;20418;-57
2022/12/06 15:04:07;;;;;;;24.65;14.23;;;;;;;7.53;71.02;97776.22;10247163;28;20150;-57
2022/12/06 15:09:14;;;;;;;22.20;13.27;;;;;;;7.45;71.55;97768.41;10246707;28;20069;-57
2022/12/06 15:14:21;;;;;;;24.50;14.15;;;;;;;7.33;72.07;97775.94;10238560;28;20109;-57
2022/12/06 15:19:21;;;;;;;30.10;17.73;;;;;;;7.31;71.77;97776.78;10244282;28;20133;-57
2022/12/06 15:24:21;;;;;;;;;;;;;;;7.21;72.54;97774.06;10247451;28;20053;-57
2022/12/06 15:29:20;;;;;;;28.05;14.23;;;;;;;7.14;73.04;97759.34;10246690;28;19952;-57
2022/12/06 15:34:21;;;;;;;31.02;16.95;;;;;;;7.14;72.72;97763.66;10246234;28;20453;-56
2022/12/06 15:39:20;;;;;;;26.40;15.02;;;;;;;7.14;72.94;97759.34;10247028;28;20062;-56
2022/12/06 15:44:25;;;;;;;25.27;13.57;;;;;;;7.11;73.10;97754.16;10246932;28;20038;-56
2022/12/06 15:49:27;;;;;;;46.50;23.77;;;;;;;7.14;73.58;97759.34;10245774;28;20070;-56
2022/12/06 15:54:26;;;;;;;26.58;15.98;;;;;;;7.10;73.25;97748.97;10245711;28;20068;-56
2022/12/06 15:59:25;;;;;;;29.85;16.92;;;;;;;7.05;74.21;97759.25;10244985;28;20036;-56
2022/12/06 16:04:28;;;;;;;27.85;16.42;;;;;;;7.01;73.92;97763.50;10244371;28;20061;-56
2022/12/06 16:09:27;;;;;;;25.55;14.10;;;;;;;6.98;74.92;97747.09;10243628;28;20451;-56
2022/12/06 16:14:26;;;;;;;28.15;15.75;;;;;;;7.00;75.16;97746.28;10245563;28;20312;-56
2022/12/06 16:20:29;;;;;;;22.83;13.40;;;;;;;6.97;75.02;97745.38;10244613;28;20580;-57
2022/12/06 16:24:47;;;;;;;24.85;12.50;;;;;;;7.02;74.84;97751.47;10245194;28;20117;-58
2022/12/06 16:29:46;;;;;;;23.52;14.02;;;;;;;7.06;75.33;97749.81;10244626;28;20113;-58
2022/12/06 16:34:45;;;;;;;34.70;19.27;;;;;;;7.07;75.76;97742.06;10244760;28;20030;-57
2022/12/06 16:39:44;;;;;;;27.58;14.02;;;;;;;7.02;75.47;97743.72;10242853;28;20042;-57
2022/12/06 16:44:52;;;;;;;24.38;13.23;;;;;;;7.04;75.92;97737.75;10244331;28;20033;-57
2022/12/06 16:49:50;;;;;;;23.50;12.35;;;;;;;6.96;75.70;97744.53;10243628;28;20587;-57
2022/12/06 16:54:49;;;;;;;21.13;13.10;;;;;;;7.00;75.75;97735.97;10243772;28;20506;-57
2022/12/06 16:59:48;;;;;;;28.75;15.25;;;;;;;7.07;75.79;97736.91;10243022;28;20489;-57
2022/12/06 17:04:47;;;;;;;34.17;20.38;;;;;;;7.09;75.13;97742.97;10241377;28;20041;-57
2022/12/06 17:09:46;;;;;;;34.33;23.88;;;;;;;6.97;75.85;97745.38;10243493;28;20416;-57
2022/12/06 17:14:45;;;;;;;41.03;27.02;;;;;;;6.87;76.61;97740.97;10242419;28;20029;-57
2022/12/06 17:19:44;;;;;;;39.17;23.02;;;;;;;6.72;77.37;97755.34;10239862;28;20124;-57
2022/12/06 17:24:44;;;;;;;39.80;24.85;;;;;;;6.59;78.16;97750.88;10237971;28;20113;-57
2022/12/06 17:29:43;;;;;;;;;;;;;;;6.45;78.93;97757.56;10241135;28;20065;-55
2022/12/06 17:34:42;;;;;;;75.75;47.85;;;;;;;6.29;80.48;97757.31;10243587;28;19945;-56
2022/12/06 17:39:41;;;;;;;79.35;53.03;;;;;;;6.23;80.86;97739.16;10243420;28;20097;-56
2022/12/06 17:44:40;;;;;;;51.60;35.38;;;;;;;6.01;81.54;97737.09;10243190;28;20062;-56
2022/12/06 17:49:39;;;;;;;49.28;31.73;;;;;;;5.93;81.22;97737.84;10243692;28;20052;-57
2022/12/06 17:54:38;;;;;;;48.10;30.58;;;;;;;5.87;82.26;97730.00;10250331;28;20169;-57
2022/12/06 17:59:37;;;;;;;;;;;;;;;5.76;82.93;97728.94;10250655;28;20109;-57
2022/12/06 18:04:36;;;;;;;17.58;10.20;;;;;;;5.93;82.50;97724.94;10248325;28;20000;-57
2022/12/06 18:09:35;;;;;;;24.30;11.80;;;;;;;6.08;81.27;97728.63;10223429;28;20034;-57
2022/12/06 18:14:34;;;;;;;17.10;10.40;;;;;;;6.23;80.62;97734.00;10250690;28;20078;-57
2022/12/06 18:19:34;;;;;;;31.65;20.17;;;;;;;6.36;80.65;97735.94;10250375;28;20113;-57
2022/12/06 18:24:33;;;;;;;21.40;11.88;;;;;;;6.51;80.07;97739.59;10249554;28;20113;-57
2022/12/06 18:29:33;;;;;;;25.23;13.52;;;;;;;6.58;79.54;97719.06;10249548;28;20294;-57
2022/12/06 18:34:32;;;;;;;20.45;11.75;;;;;;;6.61;78.60;97720.84;10249179;28;20511;-57
2022/12/06 18:39:31;;;;;;;20.17;11.60;;;;;;;6.64;78.42;97713.13;10248303;28;20452;-57
2022/12/06 18:44:29;;;;;;;27.40;16.33;;;;;;;6.65;78.18;97716.56;10249284;28;20117;-57
2022/12/06 18:49:28;;;;;;;22.38;12.70;;;;;;;6.59;78.41;97707.06;10247506;28;20109;-58
2022/12/06 18:54:27;;;;;;;23.00;13.10;;;;;;;6.71;78.47;97709.78;10248197;28;20041;-57
2022/12/06 18:59:27;;;;;;;28.80;16.92;;;;;;;6.70;78.42;97720.09;10247900;28;20030;-57
2022/12/06 19:04:26;;;;;;;34.20;18.80;;;;;;;6.50;78.89;97714.66;10247071;28;20125;-57
2022/12/06 19:09:25;;;;;;;35.15;20.05;;;;;;;6.17;79.65;97727.06;10246408;28;20045;-58
2022/12/06 19:14:24;;;;;;;32.15;21.00;;;;;;;5.93;80.38;97724.94;10248238;28;20041;-58
2022/12/06 19:19:24;;;;;;;41.67;25.40;;;;;;;5.73;80.49;97723.72;10247427;28;20125;-58
2022/12/06 19:24:24;;;;;;;32.85;19.80;;;;;;;5.40;82.93;97716.28;10246404;28;20544;-57
2022/12/06 19:29:23;;;;;;;53.60;30.33;;;;;;;5.38;82.66;97721.38;10245011;28;20126;-58
2022/12/06 19:34:24;;;;;;;;;;;;;;;5.31;84.12;97698.94;10247255;28;20085;-58
2022/12/06 19:39:24;;;;;;;42.88;22.92;;;;;;;5.33;84.61;97702.44;10245788;28;20000;-56
2022/12/06 19:44:24;;;;;;;43.95;25.15;;;;;;;5.38;84.45;97705.09;10246025;28;20199;-58
2022/12/06 19:49:25;;;;;;;30.08;15.90;;;;;;;5.32;84.67;97695.53;10245388;28;20071;-57
2022/12/06 19:54:27;;;;;;;22.05;12.20;;;;;;;5.48;84.16;97694.97;10245072;28;20495;-57
2022/12/06 19:59:29;;;;;;;45.70;25.33;;;;;;;5.64;84.19;97697.81;10245464;28;20069;-57
2022/12/06 20:04:31;;;;;;;61.15;35.38;;;;;;;5.60;83.52;97698.59;10245678;28;20451;-57
2022/12/06 20:09:31;;;;;;;34.58;18.85;;;;;;;5.42;83.94;97700.03;10244828;28;20070;-57
2022/12/06 20:14:43;;;;;;;22.58;11.52;;;;;;;5.68;84.21;97697.06;10243785;28;20125;-58
2022/12/06 20:19:44;;;;;;;27.02;13.27;;;;;;;5.97;82.84;97689.78;10244739;28;20137;-58
2022/12/06 20:24:43;;;;;;;21.42;11.63;;;;;;;6.15;81.87;97695.25;10243849;28;20137;-58
2022/12/06 20:29:42;;;;;;;18.23;9.82;;;;;;;6.36;81.05;97689.53;10244210;28;20539;-58
2022/12/06 20:34:41;;;;;;;20.20;10.98;;;;;;;6.52;79.90;97679.47;10245101;28;20121;-58
2022/12/06 20:39:40;;;;;;;17.58;10.40;;;;;;;6.60;79.41;97667.53;10244344;28;20056;-58
2022/12/06 20:44:39;;;;;;;17.20;10.07;;;;;;;6.64;79.47;97664.16;10243914;28;20042;-58
2022/12/06 20:49:38;;;;;;;20.48;11.88;;;;;;;6.65;78.39;97639.22;10244023;28;20030;-58
2022/12/06 20:54:37;;;;;;;18.33;10.23;;;;;;;6.81;78.01;97654.91;10242885;28;20484;-57
2022/12/06 20:59:37;;;;;;;16.90;8.77;;;;;;;6.92;77.68;97656.75;10241633;28;20048;-57
2022/12/06 21:04:36;;;;;;;21.27;9.80;;;;;;;7.03;76.67;97670.66;10241734;28;20077;-58
2022/12/06 21:09:35;;;;;;;18.50;8.80;;;;;;;7.13;76.66;97664.75;10243428;28;20101;-58
2022/12/06 21:14:34;;;;;;;15.65;9.43;;;;;;;7.19;76.14;97658.78;10243424;28;20133;-58
2022/12/06 21:19:33;;;;;;;17.65;9.63;;;;;;;7.23;75.73;97661.41;10243639;28;20044;-57
2022/12/06 21:24:33;;;;;;;17.88;10.27;;;;;;;7.24;75.40;97649.34;10245276;28;20129;-58
2022/12/06 21:29:32;;;;;;;18.08;9.45;;;;;;;7.34;75.05;97671.00;10256619;28;20168;-58
2022/12/06 21:34:31;;;;;;;16.63;9.00;;;;;;;7.36;73.89;97661.56;10256283;28;20058;-58
2022/12/06 21:39:30;;;;;;;100.68;41.03;;;;;;;7.42;74.54;97666.78;10254753;28;20073;-58
2022/12/06 21:44:29;;;;;;;27.38;14.35;;;;;;;7.49;74.04;97673.75;10255982;28;20141;-57
2022/12/06 21:49:28;;;;;;;21.88;10.80;;;;;;;7.46;73.90;97678.88;10255744;28;20042;-58
2022/12/06 21:54:27;;;;;;;20.73;11.93;;;;;;;7.43;74.25;97689.19;10256185;28;20423;-58
2022/12/06 21:59:26;;;;;;;17.73;10.50;;;;;;;7.44;74.05;97683.16;10256094;28;20125;-58
2022/12/06 22:04:25;;;;;;;20.08;9.57;;;;;;;7.46;73.76;97689.22;10255582;28;20129;-58
2022/12/06 22:09:24;;;;;;;17.58;10.40;;;;;;;7.44;74.25;97675.41;10256228;28;20129;-58
2022/12/06 22:14:23;;;;;;;19.38;10.57;;;;;;;7.37;74.60;97673.59;10255717;28;20496;-58
2022/12/06 22:19:22;;;;;;;19.90;9.45;;;;;;;7.35;74.34;97668.41;10255281;28;20057;-58
2022/12/06 22:24:21;;;;;;;20.67;10.05;;;;;;;7.39;74.36;97677.06;10253913;28;20037;-58
2022/12/06 22:29:21;;;;;;;19.00;9.90;;;;;;;7.39;74.37;97677.06;10255145;28;20050;-58
2022/12/06 22:34:20;;;;;;;17.27;10.00;;;;;;;7.36;74.57;97659.84;10255112;28;20022;-58
2022/12/06 22:39:20;;;;;;;17.33;9.25;;;;;;;7.36;74.20;97662.41;10248586;28;20543;-58
2022/12/06 22:44:19;;;;;;;17.23;9.85;;;;;;;7.34;74.55;97665.81;10248910;28;20058;-58
2022/12/06 22:49:17;;;;;;;18.83;9.55;;;;;;;7.39;74.55;97666.75;10248477;28;20034;-58
2022/12/06 22:54:16;;;;;;;18.35;9.32;;;;;;;7.36;74.37;97661.56;10248794;28;20030;-58
2022/12/06 22:59:16;;;;;;;16.48;9.85;;;;;;;7.40;74.13;97653.00;10247959;28;20033;-58
2022/12/06 23:04:15;;;;;;;16.90;8.80;;;;;;;7.44;73.85;97655.63;10245799;28;20129;-58
2022/12/06 23:09:15;;;;;;;16.10;9.85;;;;;;;7.38;74.30;97639.16;10246951;28;20145;-57
2022/12/06 23:14:14;;;;;;;19.45;10.27;;;;;;;7.32;74.59;97640.00;10248329;28;20468;-58
2022/12/06 23:19:13;;;;;;;19.35;11.80;;;;;;;7.25;74.58;97648.53;10246825;28;20542;-58
2022/12/06 23:24:13;;;;;;;21.27;11.88;;;;;;;7.17;75.06;97643.28;10247143;28;20058;-58
2022/12/06 23:29:13;;;;;;;22.48;11.50;;;;;;;7.21;75.95;97644.16;10246179;28;20072;-58